createdAt,value
2023-01-07T00:01:24.923Z,57.88
2023-01-07T00:03:27.265Z,57.89
2023-01-07T00:05:29.037Z,57.86
2023-01-07T00:07:30.673Z,57.78
2023-01-07T00:09:32.255Z,57.60
2023-01-07T00:11:38.646Z,57.79
2023-01-07T00:13:40.618Z,57.87
2023-01-07T00:15:42.365Z,57.73
2023-01-07T00:17:43.930Z,57.65
2023-01-07T00:19:45.612Z,57.64
2023-01-07T00:21:47.171Z,57.73
2023-01-07T00:23:49.494Z,57.67
2023-01-07T00:25:52.347Z,57.74
2023-01-07T00:27:53.923Z,57.75
2023-01-07T00:29:55.648Z,57.57
2023-01-07T00:32:00.312Z,57.66
2023-01-07T00:34:02.341Z,57.71
2023-01-07T00:36:10.072Z,57.66
2023-01-07T00:38:12.257Z,57.64
2023-01-07T00:40:17.028Z,57.71
2023-01-07T00:42:37.065Z,57.63
2023-01-07T00:44:38.620Z,57.58
2023-01-07T00:46:40.187Z,57.58
2023-01-07T00:48:42.775Z,57.65
2023-01-07T00:50:45.376Z,57.64
2023-01-07T00:52:49.243Z,57.73
2023-01-07T00:54:50.977Z,57.56
2023-01-07T00:56:53.221Z,57.68
2023-01-07T00:58:57.888Z,58.28
2023-01-07T01:01:01.110Z,57.68
2023-01-07T01:03:02.802Z,57.73
2023-01-07T01:05:05.912Z,57.67
2023-01-07T01:07:09.983Z,57.59
2023-01-07T01:09:12.329Z,57.86
2023-01-07T01:11:16.425Z,57.81
2023-01-07T01:13:18.798Z,57.65
2023-01-07T01:15:22.228Z,57.59
2023-01-07T01:17:26.292Z,57.63
2023-01-07T01:19:27.862Z,57.78
2023-01-07T01:21:29.439Z,57.61
2023-01-07T01:23:31.090Z,57.66
2023-01-07T01:25:32.788Z,57.73
2023-01-07T01:27:34.652Z,57.59
2023-01-07T01:29:36.270Z,57.53
2023-01-07T01:31:43.607Z,57.57
2023-01-07T01:33:47.436Z,57.49
2023-01-07T01:35:49.274Z,57.65
2023-01-07T01:37:50.973Z,57.64
2023-01-07T01:39:52.912Z,57.59
2023-01-07T01:41:56.383Z,57.52
2023-01-07T01:43:58.523Z,57.66
2023-01-07T01:46:16.566Z,57.41
2023-01-07T01:48:21.415Z,57.66
2023-01-07T01:50:40.214Z,57.55
2023-01-07T01:52:52.415Z,57.45
2023-01-07T01:54:58.807Z,57.51
2023-01-07T01:57:06.681Z,57.52
2023-01-07T01:59:16.708Z,57.60
2023-01-07T02:01:18.601Z,57.54
2023-01-07T02:03:24.165Z,57.69
2023-01-07T02:05:34.054Z,57.56
2023-01-07T02:07:35.665Z,57.59
2023-01-07T02:09:37.762Z,57.43
2023-01-07T02:12:13.195Z,57.49
2023-01-07T02:14:43.005Z,57.40
2023-01-07T02:16:53.213Z,57.54
2023-01-07T02:19:38.115Z,57.50
2023-01-07T02:21:54.432Z,57.50
2023-01-07T02:24:14.549Z,57.47
2023-01-07T02:26:43.016Z,57.50
2023-01-07T02:29:04.180Z,57.51
2023-01-07T02:31:44.526Z,57.64
2023-01-07T02:33:54.444Z,57.63
2023-01-07T02:36:09.519Z,57.55
2023-01-07T02:38:35.226Z,57.61
2023-01-07T02:40:55.788Z,57.57
2023-01-07T02:43:16.903Z,57.65
2023-01-07T02:45:52.402Z,57.09
2023-01-07T02:47:58.241Z,57.55
2023-01-07T02:50:04.443Z,57.46
2023-01-07T02:52:17.755Z,57.53
2023-01-07T02:54:26.836Z,57.50
2023-01-07T02:56:47.147Z,57.49
2023-01-07T02:59:07.117Z,57.60
2023-01-07T03:01:34.994Z,57.64
2023-01-07T03:03:42.328Z,57.58
2023-01-07T03:06:05.732Z,57.50
2023-01-07T03:08:13.860Z,57.55
2023-01-07T03:10:45.721Z,57.50
2023-01-07T03:12:54.918Z,57.44
2023-01-07T03:15:18.265Z,57.41
2023-01-07T03:17:31.659Z,57.59
2023-01-07T03:19:36.416Z,57.66
2023-01-07T03:21:40.243Z,57.59
2023-01-07T03:23:50.003Z,57.62
2023-01-07T03:25:54.605Z,57.71
2023-01-07T03:27:59.143Z,57.62
2023-01-07T03:30:08.036Z,57.58
2023-01-07T03:32:15.470Z,57.56
2023-01-07T03:34:22.191Z,57.76
2023-01-07T03:36:34.090Z,57.59
2023-01-07T03:38:38.322Z,57.56
2023-01-07T03:40:40.247Z,57.68
2023-01-07T03:42:48.869Z,57.59
2023-01-07T03:44:55.052Z,57.21
2023-01-07T03:46:59.164Z,57.67
2023-01-07T03:49:01.070Z,57.49
2023-01-07T03:51:03.111Z,57.39
2023-01-07T03:53:04.776Z,57.51
2023-01-07T03:55:12.382Z,57.43
2023-01-07T03:57:14.047Z,57.49
2023-01-07T03:59:15.967Z,57.56
2023-01-07T04:01:17.830Z,57.49
2023-01-07T04:03:23.938Z,57.24
2023-01-07T04:05:27.048Z,57.45
2023-01-07T04:07:32.000Z,57.61
2023-01-07T04:09:33.954Z,57.62
2023-01-07T04:11:35.772Z,57.46
2023-01-07T04:13:37.465Z,57.85
2023-01-07T04:15:43.239Z,57.40
2023-01-07T04:17:47.493Z,57.48
2023-01-07T04:19:50.106Z,57.49
2023-01-07T04:21:51.682Z,57.44
2023-01-07T04:23:54.036Z,57.55
2023-01-07T04:25:56.122Z,57.49
2023-01-07T04:28:00.050Z,57.59
2023-01-07T04:30:01.836Z,57.47
2023-01-07T04:32:08.503Z,57.60
2023-01-07T04:34:10.278Z,57.65
2023-01-07T04:36:15.555Z,57.72
2023-01-07T04:38:18.734Z,57.53
2023-01-07T04:40:20.687Z,57.61
2023-01-07T04:42:23.053Z,57.57
2023-01-07T04:44:24.912Z,57.60
2023-01-07T04:46:27.951Z,57.60
2023-01-07T04:48:31.752Z,57.63
2023-01-07T04:50:34.271Z,57.52
2023-01-07T04:52:36.129Z,57.40
2023-01-07T04:54:38.369Z,57.50
2023-01-07T04:56:40.210Z,57.51
2023-01-07T04:58:43.926Z,57.60
2023-01-07T05:00:46.575Z,57.49
2023-01-07T05:02:50.266Z,57.65
2023-01-07T05:04:52.320Z,57.76
2023-01-07T05:06:55.947Z,57.19
2023-01-07T05:08:59.257Z,57.73
2023-01-07T05:11:02.273Z,57.60
2023-01-07T05:13:07.016Z,57.68
2023-01-07T05:15:10.341Z,57.65
2023-01-07T05:17:15.417Z,58.12
2023-01-07T05:19:21.928Z,57.78
2023-01-07T05:21:24.297Z,58.03
2023-01-07T05:23:25.851Z,57.72
2023-01-07T05:25:28.255Z,57.65
2023-01-07T05:27:32.867Z,57.78
2023-01-07T05:29:35.697Z,57.51
2023-01-07T05:31:37.488Z,57.78
2023-01-07T05:33:39.860Z,57.66
2023-01-07T05:35:44.119Z,57.64
2023-01-07T05:37:46.059Z,57.76
2023-01-07T05:39:48.119Z,57.69
2023-01-07T05:41:53.390Z,57.72
2023-01-07T05:43:55.581Z,57.72
2023-01-07T05:45:57.719Z,57.68
2023-01-07T05:47:59.364Z,57.68
2023-01-07T05:50:00.978Z,57.44
2023-01-07T05:52:02.650Z,57.66
2023-01-07T05:54:04.163Z,57.68
2023-01-07T05:56:06.178Z,57.74
2023-01-07T05:58:08.044Z,57.80
2023-01-07T06:00:10.407Z,57.81
2023-01-07T06:02:14.880Z,57.72
2023-01-07T06:04:16.557Z,57.87
2023-01-07T06:06:21.002Z,57.68
2023-01-07T06:08:22.446Z,57.75
2023-01-07T06:10:24.032Z,57.73
2023-01-07T06:12:31.041Z,57.76
2023-01-07T06:14:32.610Z,57.75
2023-01-07T06:16:34.233Z,57.75
2023-01-07T06:18:36.549Z,57.71
2023-01-07T06:20:38.324Z,57.80
2023-01-07T06:22:40.039Z,57.70
2023-01-07T06:24:44.252Z,57.83
2023-01-07T06:26:48.780Z,57.80
2023-01-07T06:28:51.932Z,57.76
2023-01-07T06:30:53.583Z,57.78
2023-01-07T06:32:55.230Z,57.76
2023-01-07T06:34:56.831Z,57.75
2023-01-07T06:36:58.576Z,57.72
2023-01-07T06:39:02.663Z,57.65
2023-01-07T06:41:04.254Z,57.83
2023-01-07T06:43:05.820Z,58.03
2023-01-07T06:45:08.006Z,57.77
2023-01-07T06:47:09.611Z,57.71
2023-01-07T06:49:11.640Z,57.85
2023-01-07T06:51:13.766Z,57.72
2023-01-07T06:53:15.210Z,57.89
2023-01-07T06:55:17.034Z,57.82
2023-01-07T06:57:18.755Z,57.79
2023-01-07T06:59:20.386Z,57.81
2023-01-07T07:01:22.286Z,57.90
2023-01-07T07:03:23.859Z,57.78
2023-01-07T07:05:25.427Z,57.84
2023-01-07T07:07:27.092Z,57.76
2023-01-07T07:09:28.718Z,57.33
2023-01-07T07:11:30.468Z,57.80
2023-01-07T07:13:31.927Z,57.82
2023-01-07T07:15:33.422Z,57.77
2023-01-07T07:17:39.211Z,57.92
2023-01-07T07:19:40.720Z,57.80
2023-01-07T07:21:43.222Z,57.81
2023-01-07T07:23:45.115Z,57.82
2023-01-07T07:25:46.749Z,57.85
2023-01-07T07:27:48.440Z,57.78
2023-01-07T07:29:49.918Z,57.78
2023-01-07T07:31:51.570Z,57.94
2023-01-07T07:33:55.105Z,58.00
2023-01-07T07:35:57.331Z,57.74
2023-01-07T07:37:58.914Z,57.93
2023-01-07T07:40:04.786Z,57.90
2023-01-07T07:42:06.619Z,57.88
2023-01-07T07:45:01.335Z,57.97
2023-01-07T07:53:44.030Z,58.02
2023-01-07T08:06:48.280Z,58.35
2023-01-07T08:08:52.208Z,58.33
2023-01-07T08:10:55.858Z,58.01
2023-01-07T08:13:00.780Z,58.14
2023-01-07T08:15:02.525Z,58.25
2023-01-07T08:17:10.332Z,58.57
2023-01-07T08:19:12.579Z,58.29
2023-01-07T08:21:14.088Z,58.23
2023-01-07T08:23:15.917Z,58.06
2023-01-07T08:25:17.493Z,58.19
2023-01-07T08:27:19.225Z,58.19
2023-01-07T08:29:21.829Z,58.12
2023-01-07T08:31:23.393Z,58.15
2023-01-07T08:33:25.156Z,58.23
2023-01-07T08:35:30.061Z,58.17
2023-01-07T08:37:31.826Z,58.21
2023-01-07T08:39:33.481Z,58.24
2023-01-07T08:41:35.022Z,58.25
2023-01-07T08:43:36.986Z,57.91
2023-01-07T08:45:38.681Z,58.15
2023-01-07T08:47:42.475Z,58.28
2023-01-07T08:49:44.081Z,58.16
2023-01-07T08:51:45.636Z,58.63
2023-01-07T08:53:48.100Z,58.13
2023-01-07T08:55:50.318Z,58.23
2023-01-07T08:57:52.317Z,58.38
2023-01-07T08:59:54.014Z,58.68
2023-01-07T09:01:55.932Z,58.18
2023-01-07T09:04:00.458Z,58.22
2023-01-07T09:06:05.178Z,58.30
2023-01-07T09:08:08.005Z,58.33
2023-01-07T09:10:10.673Z,58.29
2023-01-07T09:12:12.489Z,58.38
2023-01-07T09:14:14.862Z,58.37
2023-01-07T09:16:16.574Z,58.29
2023-01-07T09:18:18.164Z,58.11
2023-01-07T09:20:20.107Z,58.37
2023-01-07T09:22:21.896Z,58.22
2023-01-07T09:24:23.511Z,58.26
2023-01-07T09:26:32.586Z,58.49
2023-01-07T09:28:34.263Z,58.24
2023-01-07T09:30:35.912Z,58.32
2023-01-07T09:32:37.693Z,58.25
2023-01-07T09:34:39.402Z,58.18
2023-01-07T09:36:44.903Z,58.24
2023-01-07T09:38:46.544Z,58.38
2023-01-07T09:40:48.838Z,58.62
2023-01-07T09:43:16.214Z,58.32
2023-01-07T09:45:33.137Z,58.32
2023-01-07T09:47:37.399Z,58.26
2023-01-07T09:49:42.461Z,58.31
2023-01-07T09:51:51.638Z,58.33
2023-01-07T09:53:57.348Z,58.27
2023-01-07T09:56:10.888Z,58.39
2023-01-07T09:58:18.327Z,58.54
2023-01-07T10:00:23.446Z,58.35
2023-01-07T10:02:42.708Z,58.51
2023-01-07T10:05:13.681Z,58.25
2023-01-07T10:07:35.376Z,58.33
2023-01-07T10:09:45.333Z,58.36
2023-01-07T10:11:49.988Z,58.46
2023-01-07T10:14:02.795Z,58.36
2023-01-07T10:16:22.145Z,58.47
2023-01-07T10:18:32.189Z,58.44
2023-01-07T10:20:50.274Z,58.49
2023-01-07T10:22:54.918Z,58.50
2023-01-07T10:25:02.488Z,58.40
2023-01-07T10:27:10.690Z,58.37
2023-01-07T10:29:40.045Z,58.21
2023-01-07T10:31:43.551Z,58.44
2023-01-07T10:33:47.842Z,58.51
2023-01-07T10:35:59.096Z,58.37
2023-01-07T10:38:04.659Z,58.15
2023-01-07T10:40:13.089Z,58.21
2023-01-07T10:42:20.061Z,58.37
2023-01-07T10:44:53.769Z,58.36
2023-01-07T10:47:14.559Z,58.30
2023-01-07T10:49:31.805Z,58.41
2023-01-07T10:51:36.466Z,58.23
2023-01-07T10:54:03.008Z,58.32
2023-01-07T10:56:26.131Z,58.23
2023-01-07T10:58:40.960Z,58.28
2023-01-07T11:00:47.175Z,58.46
2023-01-07T11:02:53.319Z,58.49
2023-01-07T11:04:56.355Z,58.38
2023-01-07T11:07:08.533Z,58.19
2023-01-07T11:09:22.535Z,58.32
2023-01-07T11:11:27.158Z,58.25
2023-01-07T11:13:35.482Z,58.41
2023-01-07T11:15:44.343Z,58.45
2023-01-07T11:17:51.691Z,58.39
2023-01-07T11:19:56.231Z,58.29
2023-01-07T11:21:59.834Z,58.49
2023-01-07T11:24:03.861Z,58.36
2023-01-07T11:26:13.661Z,58.50
2023-01-07T11:28:21.698Z,58.19
2023-01-07T11:30:31.123Z,58.28
2023-01-07T11:32:40.441Z,58.43
2023-01-07T11:34:56.519Z,58.27
2023-01-07T11:36:58.268Z,58.26
2023-01-07T11:39:10.139Z,58.24
2023-01-07T11:41:24.548Z,58.25
2023-01-07T11:43:32.852Z,58.34
2023-01-07T11:46:19.085Z,58.24
2023-01-07T11:48:32.347Z,58.31
2023-01-07T11:50:41.115Z,58.38
2023-01-07T11:52:55.655Z,57.97
2023-01-07T11:54:57.588Z,58.18
2023-01-07T11:57:22.335Z,58.37
2023-01-07T11:59:28.347Z,58.24
2023-01-07T12:01:30.068Z,58.03
2023-01-07T12:03:31.763Z,58.09
2023-01-07T12:05:33.495Z,57.90
2023-01-07T12:07:35.317Z,58.14
2023-01-07T12:09:39.546Z,57.99
2023-01-07T12:11:44.775Z,58.13
2023-01-07T12:13:50.377Z,57.95
2023-01-07T12:15:56.287Z,57.60
2023-01-07T12:18:21.820Z,57.80
2023-01-07T12:20:38.495Z,57.88
2023-01-07T12:23:03.903Z,57.46
2023-01-07T12:25:26.838Z,57.02
2023-01-07T12:27:37.506Z,56.94
2023-01-07T12:30:00.387Z,57.02
2023-01-07T12:32:13.373Z,57.27
2023-01-07T12:34:25.263Z,57.18
2023-01-07T12:37:12.708Z,57.00
2023-01-07T12:39:22.362Z,57.24
2023-01-07T12:41:32.201Z,57.27
2023-01-07T12:43:39.931Z,57.19
2023-01-07T12:46:00.589Z,57.13
2023-01-07T12:48:07.031Z,57.42
2023-01-07T12:50:24.544Z,56.98
2023-01-07T12:52:45.874Z,57.17
2023-01-07T12:54:59.229Z,57.44
2023-01-07T12:57:15.659Z,56.97
2023-01-07T12:59:45.634Z,57.22
2023-01-07T13:02:24.005Z,57.80
2023-01-07T13:04:41.097Z,57.40
2023-01-07T13:06:55.317Z,57.54
2023-01-07T13:09:03.141Z,57.49
2023-01-07T13:11:42.069Z,57.25
2023-01-07T13:13:54.210Z,57.59
2023-01-07T13:15:59.096Z,57.46
2023-01-07T13:18:15.349Z,57.03
2023-01-07T13:20:37.443Z,57.37
2023-01-07T13:22:56.531Z,57.58
2023-01-07T13:25:20.190Z,56.93
2023-01-07T13:27:55.151Z,57.03
2023-01-07T13:30:09.414Z,57.58
2023-01-07T13:32:28.400Z,57.35
2023-01-07T13:34:49.713Z,56.48
2023-01-07T13:37:16.801Z,57.49
2023-01-07T13:39:38.718Z,57.05
2023-01-07T13:42:03.152Z,56.81
2023-01-07T13:44:12.687Z,57.21
2023-01-07T13:46:18.806Z,56.76
2023-01-07T13:48:24.648Z,56.68
2023-01-07T13:50:54.868Z,56.82
2023-01-07T13:53:06.127Z,56.93
2023-01-07T13:55:34.363Z,56.45
2023-01-07T13:57:35.990Z,56.61
2023-01-07T13:59:48.660Z,56.32
2023-01-07T14:02:15.182Z,56.15
2023-01-07T14:04:22.993Z,56.59
2023-01-07T14:06:27.738Z,56.39
2023-01-07T14:08:29.520Z,56.60
2023-01-07T14:10:36.012Z,56.12
2023-01-07T14:13:07.191Z,56.50
2023-01-07T14:15:29.447Z,56.16
2023-01-07T14:17:51.947Z,56.29
2023-01-07T14:20:05.684Z,56.30
2023-01-07T14:22:37.774Z,56.24
2023-01-07T14:24:55.570Z,56.40
2023-01-07T14:27:02.843Z,56.15
2023-01-07T14:29:54.314Z,55.38
2023-01-07T14:32:19.186Z,56.12
2023-01-07T14:34:25.646Z,56.12
2023-01-07T14:37:02.142Z,56.26
2023-01-07T14:39:03.841Z,56.19
2023-01-07T14:41:13.539Z,55.80
2023-01-07T14:43:45.947Z,55.99
2023-01-07T14:45:47.723Z,56.07
2023-01-07T14:47:49.197Z,56.05
2023-01-07T14:50:19.630Z,55.77
2023-01-07T14:52:31.137Z,55.95
2023-01-07T14:54:32.737Z,55.94
2023-01-07T14:57:01.077Z,55.62
2023-01-07T14:59:41.774Z,55.57
2023-01-07T15:01:53.021Z,55.73
2023-01-07T15:04:20.743Z,55.52
2023-01-07T15:06:36.732Z,55.59
2023-01-07T15:09:05.009Z,55.66
2023-01-07T15:11:29.462Z,55.54
2023-01-07T15:13:54.376Z,55.53
2023-01-07T15:16:04.442Z,55.54
2023-01-07T15:18:08.173Z,55.69
2023-01-07T15:20:10.590Z,55.61
2023-01-07T15:22:31.123Z,55.45
2023-01-07T15:24:54.449Z,55.37
2023-01-07T15:27:01.633Z,55.32
2023-01-07T15:29:22.423Z,55.18
2023-01-07T15:31:32.338Z,55.25
2023-01-07T15:34:15.488Z,55.25
2023-01-07T15:36:17.368Z,55.48
2023-01-07T15:38:31.897Z,55.28
2023-01-07T15:40:33.849Z,55.13
2023-01-07T15:42:35.505Z,55.20
2023-01-07T15:44:43.062Z,55.04
2023-01-07T15:46:45.391Z,55.07
2023-01-07T15:49:14.944Z,54.64
2023-01-07T15:51:20.101Z,55.13
2023-01-07T15:53:25.298Z,54.98
2023-01-07T15:55:27.132Z,54.91
2023-01-07T15:57:36.982Z,55.03
2023-01-07T15:59:45.689Z,54.61
2023-01-07T16:01:49.646Z,54.53
2023-01-07T16:03:55.541Z,54.81
2023-01-07T16:05:59.335Z,54.83
2023-01-07T16:08:01.501Z,54.67
2023-01-07T16:10:03.839Z,54.84
2023-01-07T16:12:35.866Z,54.52
2023-01-07T16:14:39.549Z,54.58
2023-01-07T16:16:41.201Z,54.50
2023-01-07T16:18:53.984Z,54.32
2023-01-07T16:21:02.213Z,54.34
2023-01-07T16:23:09.962Z,54.31
2023-01-07T16:25:20.153Z,54.47
2023-01-07T16:27:32.076Z,54.04
2023-01-07T16:29:38.075Z,54.19
2023-01-07T16:31:39.885Z,54.03
2023-01-07T16:33:43.736Z,54.36
2023-01-07T16:35:47.499Z,54.23
2023-01-07T16:37:49.641Z,54.23
2023-01-07T16:39:52.977Z,54.36
2023-01-07T16:42:15.554Z,54.39
2023-01-07T16:44:37.093Z,53.85
2023-01-07T16:46:42.815Z,54.49
2023-01-07T16:48:45.697Z,54.29
2023-01-07T16:50:48.810Z,54.31
2023-01-07T16:52:54.498Z,54.24
2023-01-07T16:54:56.221Z,54.44
2023-01-07T16:56:59.226Z,54.18
2023-01-07T16:59:01.444Z,54.26
2023-01-07T17:01:08.123Z,54.35
2023-01-07T17:03:12.278Z,54.26
2023-01-07T17:05:19.217Z,54.31
2023-01-07T17:07:27.263Z,54.24
2023-01-07T17:09:34.760Z,54.12
2023-01-07T17:11:42.037Z,54.29
2023-01-07T17:13:44.100Z,54.16
2023-01-07T17:15:45.658Z,54.25
2023-01-07T17:17:47.247Z,54.17
2023-01-07T17:20:19.783Z,54.11
2023-01-07T17:22:28.889Z,54.15
2023-01-07T17:24:30.576Z,54.35
2023-01-07T17:26:40.677Z,54.32
2023-01-07T17:28:52.283Z,54.28
2023-01-07T17:30:54.672Z,54.28
2023-01-07T17:32:56.404Z,54.29
2023-01-07T17:35:03.375Z,54.13
2023-01-07T17:37:05.076Z,54.29
2023-01-07T17:39:06.935Z,54.30
2023-01-07T17:41:32.875Z,54.39
2023-01-07T17:43:34.694Z,54.36
2023-01-07T17:45:36.766Z,54.17
2023-01-07T17:47:39.806Z,54.22
2023-01-07T17:49:41.570Z,54.18
2023-01-07T17:51:45.541Z,54.23
2023-01-07T17:53:53.000Z,54.26
2023-01-07T17:55:54.826Z,54.37
2023-01-07T17:57:56.539Z,54.42
2023-01-07T17:59:58.149Z,54.50
2023-01-07T18:02:00.682Z,54.05
2023-01-07T18:04:02.485Z,54.42
2023-01-07T18:06:13.893Z,54.28
2023-01-07T18:08:15.563Z,54.21
2023-01-07T18:10:21.373Z,54.35
2023-01-07T18:12:34.575Z,54.24
2023-01-07T18:14:36.213Z,54.41
2023-01-07T18:16:53.247Z,54.38
2023-01-07T18:18:56.489Z,54.41
2023-01-07T18:20:58.618Z,54.24
2023-01-07T18:23:00.223Z,54.51
2023-01-07T18:25:01.790Z,54.25
2023-01-07T18:27:03.469Z,54.31
2023-01-07T18:29:05.069Z,54.20
2023-01-07T18:31:07.495Z,54.25
2023-01-07T18:33:10.889Z,54.17
2023-01-07T18:35:14.371Z,54.33
2023-01-07T18:37:19.817Z,54.23
2023-01-07T18:39:21.648Z,54.49
2023-01-07T18:41:23.238Z,54.70
2023-01-07T18:43:25.332Z,54.12
2023-01-07T18:45:26.960Z,54.49
2023-01-07T18:47:28.728Z,54.41
2023-01-07T18:49:30.316Z,54.49
2023-01-07T18:51:34.629Z,54.26
2023-01-07T18:53:36.144Z,54.61
2023-01-07T18:55:39.508Z,54.48
2023-01-07T18:57:41.145Z,54.44
2023-01-07T18:59:42.767Z,54.48
2023-01-07T19:01:45.259Z,54.70
2023-01-07T19:03:47.859Z,54.28
2023-01-07T19:05:51.481Z,54.35
2023-01-07T19:08:02.612Z,54.88
2023-01-07T19:10:05.209Z,54.65
2023-01-07T19:12:07.157Z,55.04
2023-01-07T19:14:09.647Z,55.17
2023-01-07T19:16:14.440Z,55.11
2023-01-07T19:18:16.122Z,55.45
2023-01-07T19:20:17.989Z,55.72
2023-01-07T19:22:20.330Z,55.40
2023-01-07T19:24:22.991Z,55.25
2023-01-07T19:26:26.381Z,55.44
2023-01-07T19:28:28.180Z,55.36
2023-01-07T19:30:29.743Z,55.90
2023-01-07T19:32:31.343Z,55.34
2023-01-07T19:34:32.893Z,55.57
2023-01-07T19:36:34.448Z,55.33
2023-01-07T19:41:15.503Z,55.66
2023-01-07T19:43:16.976Z,55.53
2023-01-07T19:45:18.451Z,55.83
2023-01-07T19:47:20.150Z,55.33
2023-01-07T19:49:21.857Z,55.34
2023-01-07T19:51:23.418Z,55.73
2023-01-07T19:53:25.604Z,55.32
2023-01-07T19:55:27.389Z,55.73
2023-01-07T19:57:29.449Z,55.55
2023-01-07T19:59:33.218Z,55.56
2023-01-07T20:01:35.484Z,55.77
2023-01-07T20:03:37.795Z,55.37
2023-01-07T20:05:39.451Z,55.50
2023-01-07T20:07:41.058Z,55.61
2023-01-07T20:09:42.678Z,55.84
2023-01-07T20:11:45.479Z,55.63
2023-01-07T20:13:50.224Z,55.53
2023-01-07T20:15:52.719Z,55.99
2023-01-07T20:17:54.642Z,55.70
2023-01-07T20:19:56.321Z,55.99
2023-01-07T20:21:58.029Z,55.87
2023-01-07T20:23:59.894Z,55.82
2023-01-07T20:26:02.947Z,55.68
2023-01-07T20:28:10.285Z,56.00
2023-01-07T20:30:12.516Z,55.86
2023-01-07T20:32:14.218Z,55.78
2023-01-07T20:34:20.016Z,55.67
2023-01-07T20:36:23.883Z,55.99
2023-01-07T20:38:25.460Z,55.72
2023-01-07T20:40:27.086Z,55.77
2023-01-07T20:42:28.879Z,56.03
2023-01-07T20:44:30.841Z,55.99
2023-01-07T20:46:34.679Z,55.98
2023-01-07T20:48:36.683Z,55.54
2023-01-07T20:50:39.598Z,55.91
2023-01-07T20:52:41.465Z,55.70
2023-01-07T20:54:43.393Z,55.65
2023-01-07T20:56:45.355Z,55.78
2023-01-07T20:58:48.226Z,55.62
2023-01-07T21:00:49.904Z,55.75
2023-01-07T21:02:54.576Z,55.75
2023-01-07T21:04:56.325Z,55.44
2023-01-07T21:06:58.084Z,55.62
2023-01-07T21:09:00.453Z,55.80
2023-01-07T21:11:11.626Z,55.50
2023-01-07T21:13:13.506Z,55.58
2023-01-07T21:15:16.184Z,55.61
2023-01-07T21:17:17.819Z,55.57
2023-01-07T21:19:19.475Z,55.94
2023-01-07T21:21:26.043Z,55.60
2023-01-07T21:23:27.947Z,55.78
2023-01-07T21:25:29.516Z,55.42
2023-01-07T21:27:31.147Z,55.52
2023-01-07T21:29:32.780Z,55.35
2023-01-07T21:31:34.555Z,55.59
2023-01-07T21:33:37.126Z,55.66
2023-01-07T21:35:42.254Z,55.44
2023-01-07T21:37:43.978Z,55.65
2023-01-07T21:39:45.883Z,55.52
2023-01-07T21:41:47.472Z,55.46
2023-01-07T21:43:49.283Z,55.92
2023-01-07T21:45:51.005Z,55.91
2023-01-07T21:47:52.630Z,55.74
2023-01-07T21:49:54.528Z,55.70
2023-01-07T21:51:58.202Z,55.96
2023-01-07T21:54:03.216Z,55.48
2023-01-07T21:56:09.910Z,55.54
2023-01-07T21:58:11.579Z,55.60
2023-01-07T22:00:16.670Z,55.57
2023-01-07T22:02:18.938Z,55.80
2023-01-07T22:04:20.653Z,55.89
2023-01-07T22:06:25.913Z,55.78
2023-01-07T22:08:28.703Z,55.85
2023-01-07T22:10:30.237Z,55.79
2023-01-07T22:12:33.236Z,56.04
2023-01-07T22:14:34.820Z,55.99
2023-01-07T22:16:40.492Z,55.87
2023-01-07T22:18:42.198Z,56.16
2023-01-07T22:20:44.108Z,56.38
2023-01-07T22:22:46.041Z,56.01
2023-01-07T22:24:50.472Z,56.27
2023-01-07T22:26:52.808Z,56.08
2023-01-07T22:28:57.790Z,56.50
2023-01-07T22:31:06.154Z,56.17
2023-01-07T22:33:07.897Z,56.27
2023-01-07T22:35:09.661Z,56.44
2023-01-07T22:37:15.017Z,56.51
2023-01-07T22:39:33.433Z,56.15
2023-01-07T22:41:35.390Z,56.11
2023-01-07T22:43:37.521Z,56.37
2023-01-07T22:46:02.746Z,56.06
2023-01-07T22:48:05.212Z,56.49
2023-01-07T22:50:08.459Z,56.55
2023-01-07T22:52:11.751Z,56.51
2023-01-07T22:54:14.301Z,56.29
2023-01-07T22:56:19.137Z,56.36
2023-01-07T22:58:20.928Z,56.51
2023-01-07T23:00:58.585Z,56.47
2023-01-07T23:03:03.480Z,56.24
2023-01-07T23:05:05.450Z,56.60
2023-01-07T23:07:07.189Z,56.25
2023-01-07T23:09:11.458Z,56.73
2023-01-07T23:11:33.201Z,56.27
2023-01-07T23:13:35.467Z,56.35
2023-01-07T23:15:38.407Z,56.37
2023-01-07T23:17:41.133Z,56.39
2023-01-07T23:19:45.792Z,56.17
2023-01-07T23:21:49.849Z,56.44
2023-01-07T23:23:51.637Z,56.53
2023-01-07T23:25:57.530Z,56.75
2023-01-07T23:27:59.065Z,56.42
2023-01-07T23:30:04.425Z,56.46
2023-01-07T23:32:09.487Z,56.21
2023-01-07T23:34:11.815Z,56.24
2023-01-07T23:36:13.638Z,56.35
2023-01-07T23:38:16.286Z,56.22
2023-01-07T23:40:18.258Z,56.45
2023-01-07T23:42:19.760Z,56.27
2023-01-07T23:44:21.557Z,56.55
2023-01-07T23:46:27.806Z,56.32
2023-01-07T23:48:31.750Z,56.30
2023-01-07T23:50:33.394Z,56.07
2023-01-07T23:52:35.048Z,56.33
2023-01-07T23:54:37.706Z,56.30
2023-01-07T23:56:39.616Z,56.01
2023-01-07T23:58:41.296Z,56.46
